sensor_id;sensor_type;location;lat;lon;timestamp;temperature;humidity
72814;DHT22;60945;48.516;-2.768;2022-11-15T00:00:53;11.90;83.00
72814;DHT22;60945;48.516;-2.768;2022-11-15T00:03:23;12.00;83.10
72814;DHT22;60945;48.516;-2.768;2022-11-15T00:05:49;12.00;82.90
72814;DHT22;60945;48.516;-2.768;2022-11-15T00:08:15;12.00;83.00
72814;DHT22;60945;48.516;-2.768;2022-11-15T00:10:57;12.00;83.00
72814;DHT22;60945;48.516;-2.768;2022-11-15T00:13:23;12.00;83.10
72814;DHT22;60945;48.516;-2.768;2022-11-15T00:15:49;12.00;83.80
72814;DHT22;60945;48.516;-2.768;2022-11-15T00:18:15;11.90;84.40
72814;DHT22;60945;48.516;-2.768;2022-11-15T00:20:41;11.90;84.80
72814;DHT22;60945;48.516;-2.768;2022-11-15T00:23:08;11.90;85.40
72814;DHT22;60945;48.516;-2.768;2022-11-15T00:25:33;11.90;85.70
72814;DHT22;60945;48.516;-2.768;2022-11-15T00:28:00;11.80;85.50
72814;DHT22;60945;48.516;-2.768;2022-11-15T00:30:26;11.80;85.50
72814;DHT22;60945;48.516;-2.768;2022-11-15T00:32:52;11.80;85.50
72814;DHT22;60945;48.516;-2.768;2022-11-15T00:35:19;11.80;85.60
72814;DHT22;60945;48.516;-2.768;2022-11-15T00:37:44;11.80;85.20
72814;DHT22;60945;48.516;-2.768;2022-11-15T00:40:11;11.80;85.20
72814;DHT22;60945;48.516;-2.768;2022-11-15T00:42:40;11.80;84.80
72814;DHT22;60945;48.516;-2.768;2022-11-15T00:45:07;11.80;84.80
72814;DHT22;60945;48.516;-2.768;2022-11-15T00:47:32;11.80;84.70
72814;DHT22;60945;48.516;-2.768;2022-11-15T00:49:58;11.80;84.50
72814;DHT22;60945;48.516;-2.768;2022-11-15T00:52:24;11.90;84.30
72814;DHT22;60945;48.516;-2.768;2022-11-15T00:54:49;11.90;84.10
72814;DHT22;60945;48.516;-2.768;2022-11-15T00:57:15;12.00;83.90
72814;DHT22;60945;48.516;-2.768;2022-11-15T00:59:41;12.00;83.70
72814;DHT22;60945;48.516;-2.768;2022-11-15T01:02:06;12.00;83.70
72814;DHT22;60945;48.516;-2.768;2022-11-15T01:04:32;12.00;83.80
72814;DHT22;60945;48.516;-2.768;2022-11-15T01:06:57;12.00;83.70
72814;DHT22;60945;48.516;-2.768;2022-11-15T01:09:23;12.00;83.90
72814;DHT22;60945;48.516;-2.768;2022-11-15T01:11:49;12.00;83.90
72814;DHT22;60945;48.516;-2.768;2022-11-15T01:14:14;12.10;83.60
72814;DHT22;60945;48.516;-2.768;2022-11-15T01:16:40;12.10;83.60
72814;DHT22;60945;48.516;-2.768;2022-11-15T01:19:05;12.10;83.70
72814;DHT22;60945;48.516;-2.768;2022-11-15T01:21:31;12.10;84.00
72814;DHT22;60945;48.516;-2.768;2022-11-15T01:23:57;12.20;84.10
72814;DHT22;60945;48.516;-2.768;2022-11-15T01:26:23;12.20;84.00
72814;DHT22;60945;48.516;-2.768;2022-11-15T01:28:49;12.20;84.10
72814;DHT22;60945;48.516;-2.768;2022-11-15T01:31:18;12.20;84.20
72814;DHT22;60945;48.516;-2.768;2022-11-15T01:33:44;12.20;84.30
72814;DHT22;60945;48.516;-2.768;2022-11-15T01:36:15;12.30;84.30
72814;DHT22;60945;48.516;-2.768;2022-11-15T01:38:41;12.30;84.60
72814;DHT22;60945;48.516;-2.768;2022-11-15T01:41:15;12.30;84.80
72814;DHT22;60945;48.516;-2.768;2022-11-15T01:43:43;12.30;84.60
72814;DHT22;60945;48.516;-2.768;2022-11-15T01:46:31;12.40;84.60
72814;DHT22;60945;48.516;-2.768;2022-11-15T01:49:03;12.40;84.80
72814;DHT22;60945;48.516;-2.768;2022-11-15T01:51:33;12.40;85.00
72814;DHT22;60945;48.516;-2.768;2022-11-15T01:54:03;12.40;85.20
72814;DHT22;60945;48.516;-2.768;2022-11-15T01:56:32;12.40;85.30
72814;DHT22;60945;48.516;-2.768;2022-11-15T01:59:00;12.40;85.50
72814;DHT22;60945;48.516;-2.768;2022-11-15T02:01:28;12.40;85.80
72814;DHT22;60945;48.516;-2.768;2022-11-15T02:03:59;12.40;86.00
72814;DHT22;60945;48.516;-2.768;2022-11-15T02:06:26;12.40;86.10
72814;DHT22;60945;48.516;-2.768;2022-11-15T02:08:53;12.40;86.30
72814;DHT22;60945;48.516;-2.768;2022-11-15T02:11:19;12.40;86.70
72814;DHT22;60945;48.516;-2.768;2022-11-15T02:13:45;12.40;86.70
72814;DHT22;60945;48.516;-2.768;2022-11-15T02:30:44;12.50;86.30
72814;DHT22;60945;48.516;-2.768;2022-11-15T02:33:21;12.50;86.50
72814;DHT22;60945;48.516;-2.768;2022-11-15T02:36:02;12.50;86.80
72814;DHT22;60945;48.516;-2.768;2022-11-15T02:38:47;12.50;87.00
72814;DHT22;60945;48.516;-2.768;2022-11-15T02:44:47;12.50;88.10
72814;DHT22;60945;48.516;-2.768;2022-11-15T02:47:07;12.50;88.20
72814;DHT22;60945;48.516;-2.768;2022-11-15T02:49:52;12.50;88.30
72814;DHT22;60945;48.516;-2.768;2022-11-15T02:52:21;12.40;88.90
72814;DHT22;60945;48.516;-2.768;2022-11-15T02:54:54;12.40;88.90
72814;DHT22;60945;48.516;-2.768;2022-11-15T02:57:36;12.40;89.30
72814;DHT22;60945;48.516;-2.768;2022-11-15T03:02:39;12.40;89.90
72814;DHT22;60945;48.516;-2.768;2022-11-15T03:11:09;12.40;90.70
72814;DHT22;60945;48.516;-2.768;2022-11-15T03:19:02;12.40;91.20
72814;DHT22;60945;48.516;-2.768;2022-11-15T03:21:31;12.30;91.20
72814;DHT22;60945;48.516;-2.768;2022-11-15T03:24:02;12.40;91.30
72814;DHT22;60945;48.516;-2.768;2022-11-15T03:26:29;12.40;91.10
72814;DHT22;60945;48.516;-2.768;2022-11-15T03:29:01;12.40;91.30
72814;DHT22;60945;48.516;-2.768;2022-11-15T03:31:32;12.40;91.60
72814;DHT22;60945;48.516;-2.768;2022-11-15T03:34:35;12.40;91.30
72814;DHT22;60945;48.516;-2.768;2022-11-15T03:37:02;12.40;91.60
72814;DHT22;60945;48.516;-2.768;2022-11-15T03:39:29;12.40;91.70
72814;DHT22;60945;48.516;-2.768;2022-11-15T03:42:28;12.40;91.40
72814;DHT22;60945;48.516;-2.768;2022-11-15T03:45:22;12.40;91.50
72814;DHT22;60945;48.516;-2.768;2022-11-15T03:47:53;12.30;92.10
72814;DHT22;60945;48.516;-2.768;2022-11-15T03:50:21;12.30;92.10
72814;DHT22;60945;48.516;-2.768;2022-11-15T03:52:48;12.30;92.30
72814;DHT22;60945;48.516;-2.768;2022-11-15T03:55:20;12.40;92.30
72814;DHT22;60945;48.516;-2.768;2022-11-15T03:57:48;12.40;92.10
72814;DHT22;60945;48.516;-2.768;2022-11-15T04:00:14;12.40;92.30
72814;DHT22;60945;48.516;-2.768;2022-11-15T04:02:40;12.40;92.20
72814;DHT22;60945;48.516;-2.768;2022-11-15T04:05:06;12.40;93.60
72814;DHT22;60945;48.516;-2.768;2022-11-15T04:07:31;12.30;93.40
72814;DHT22;60945;48.516;-2.768;2022-11-15T04:09:57;12.40;93.20
72814;DHT22;60945;48.516;-2.768;2022-11-15T04:12:49;12.40;93.10
72814;DHT22;60945;48.516;-2.768;2022-11-15T04:15:17;12.30;93.40
72814;DHT22;60945;48.516;-2.768;2022-11-15T04:17:44;12.30;93.70
72814;DHT22;60945;48.516;-2.768;2022-11-15T04:20:11;12.30;93.90
72814;DHT22;60945;48.516;-2.768;2022-11-15T04:22:57;12.30;93.90
72814;DHT22;60945;48.516;-2.768;2022-11-15T04:25:42;12.40;93.80
72814;DHT22;60945;48.516;-2.768;2022-11-15T04:28:08;12.40;93.70
72814;DHT22;60945;48.516;-2.768;2022-11-15T04:30:34;12.40;93.60
72814;DHT22;60945;48.516;-2.768;2022-11-15T04:32:59;12.30;93.80
72814;DHT22;60945;48.516;-2.768;2022-11-15T04:35:25;12.40;93.30
72814;DHT22;60945;48.516;-2.768;2022-11-15T04:37:51;12.40;93.40
72814;DHT22;60945;48.516;-2.768;2022-11-15T04:40:16;12.40;93.20
72814;DHT22;60945;48.516;-2.768;2022-11-15T04:42:42;12.40;93.00
72814;DHT22;60945;48.516;-2.768;2022-11-15T04:45:09;12.40;92.80
72814;DHT22;60945;48.516;-2.768;2022-11-15T04:47:34;12.40;93.00
72814;DHT22;60945;48.516;-2.768;2022-11-15T04:50:03;12.40;93.10
72814;DHT22;60945;48.516;-2.768;2022-11-15T04:52:29;12.40;93.20
72814;DHT22;60945;48.516;-2.768;2022-11-15T04:54:55;12.30;93.70
72814;DHT22;60945;48.516;-2.768;2022-11-15T04:57:23;12.40;93.80
72814;DHT22;60945;48.516;-2.768;2022-11-15T04:59:48;12.30;94.00
72814;DHT22;60945;48.516;-2.768;2022-11-15T05:02:14;12.30;94.40
72814;DHT22;60945;48.516;-2.768;2022-11-15T05:04:40;12.30;94.70
72814;DHT22;60945;48.516;-2.768;2022-11-15T05:07:05;12.30;95.40
72814;DHT22;60945;48.516;-2.768;2022-11-15T05:09:31;12.20;96.10
72814;DHT22;60945;48.516;-2.768;2022-11-15T05:11:57;12.10;97.70
72814;DHT22;60945;48.516;-2.768;2022-11-15T05:14:22;12.00;98.20
72814;DHT22;60945;48.516;-2.768;2022-11-15T05:16:48;12.00;98.60
72814;DHT22;60945;48.516;-2.768;2022-11-15T05:19:14;12.00;98.40
72814;DHT22;60945;48.516;-2.768;2022-11-15T05:21:39;12.00;98.50
72814;DHT22;60945;48.516;-2.768;2022-11-15T05:24:10;12.00;98.20
72814;DHT22;60945;48.516;-2.768;2022-11-15T05:26:35;12.00;97.80
72814;DHT22;60945;48.516;-2.768;2022-11-15T05:29:01;12.10;97.90
72814;DHT22;60945;48.516;-2.768;2022-11-15T05:31:27;12.10;97.70
72814;DHT22;60945;48.516;-2.768;2022-11-15T05:33:53;12.10;97.50
72814;DHT22;60945;48.516;-2.768;2022-11-15T05:36:33;12.20;97.20
72814;DHT22;60945;48.516;-2.768;2022-11-15T05:39:00;12.20;96.90
72814;DHT22;60945;48.516;-2.768;2022-11-15T05:44:06;12.30;96.10
72814;DHT22;60945;48.516;-2.768;2022-11-15T05:46:33;12.30;96.20
72814;DHT22;60945;48.516;-2.768;2022-11-15T05:49:00;12.30;96.40
72814;DHT22;60945;48.516;-2.768;2022-11-15T05:51:28;12.30;96.20
72814;DHT22;60945;48.516;-2.768;2022-11-15T05:53:56;12.30;96.40
72814;DHT22;60945;48.516;-2.768;2022-11-15T05:56:25;12.30;96.20
72814;DHT22;60945;48.516;-2.768;2022-11-15T05:58:53;12.30;96.10
72814;DHT22;60945;48.516;-2.768;2022-11-15T06:01:19;12.30;96.20
72814;DHT22;60945;48.516;-2.768;2022-11-15T06:03:45;12.30;95.90
72814;DHT22;60945;48.516;-2.768;2022-11-15T06:06:10;12.30;95.60
72814;DHT22;60945;48.516;-2.768;2022-11-15T06:08:36;12.30;95.80
72814;DHT22;60945;48.516;-2.768;2022-11-15T06:11:06;12.30;95.50
72814;DHT22;60945;48.516;-2.768;2022-11-15T06:13:34;12.30;95.60
72814;DHT22;60945;48.516;-2.768;2022-11-15T06:16:00;12.30;95.50
72814;DHT22;60945;48.516;-2.768;2022-11-15T06:18:26;12.30;95.60
72814;DHT22;60945;48.516;-2.768;2022-11-15T06:20:52;12.30;95.60
72814;DHT22;60945;48.516;-2.768;2022-11-15T06:23:18;12.30;95.40
72814;DHT22;60945;48.516;-2.768;2022-11-15T06:25:44;12.40;95.50
72814;DHT22;60945;48.516;-2.768;2022-11-15T06:28:09;12.40;95.60
72814;DHT22;60945;48.516;-2.768;2022-11-15T06:30:35;12.40;95.50
72814;DHT22;60945;48.516;-2.768;2022-11-15T06:33:02;12.40;95.60
72814;DHT22;60945;48.516;-2.768;2022-11-15T06:35:29;12.40;95.60
72814;DHT22;60945;48.516;-2.768;2022-11-15T06:37:55;12.40;95.70
72814;DHT22;60945;48.516;-2.768;2022-11-15T06:40:21;12.40;96.20
72814;DHT22;60945;48.516;-2.768;2022-11-15T06:42:47;12.40;96.00
72814;DHT22;60945;48.516;-2.768;2022-11-15T06:45:12;12.40;96.30
72814;DHT22;60945;48.516;-2.768;2022-11-15T06:47:47;12.40;96.50
72814;DHT22;60945;48.516;-2.768;2022-11-15T06:50:13;12.50;96.20
72814;DHT22;60945;48.516;-2.768;2022-11-15T06:52:39;12.50;96.10
72814;DHT22;60945;48.516;-2.768;2022-11-15T06:55:05;12.50;96.00
72814;DHT22;60945;48.516;-2.768;2022-11-15T06:57:30;12.50;96.20
72814;DHT22;60945;48.516;-2.768;2022-11-15T06:59:57;12.60;96.10
72814;DHT22;60945;48.516;-2.768;2022-11-15T07:02:23;12.60;96.10
72814;DHT22;60945;48.516;-2.768;2022-11-15T07:04:48;12.60;96.30
72814;DHT22;60945;48.516;-2.768;2022-11-15T07:07:14;12.60;96.10
72814;DHT22;60945;48.516;-2.768;2022-11-15T07:09:40;12.70;96.70
72814;DHT22;60945;48.516;-2.768;2022-11-15T07:12:05;12.60;96.80
72814;DHT22;60945;48.516;-2.768;2022-11-15T07:14:31;12.60;97.50
72814;DHT22;60945;48.516;-2.768;2022-11-15T07:16:57;12.60;97.40
72814;DHT22;60945;48.516;-2.768;2022-11-15T07:19:22;12.70;97.60
72814;DHT22;60945;48.516;-2.768;2022-11-15T07:21:48;12.70;97.50
72814;DHT22;60945;48.516;-2.768;2022-11-15T07:24:13;12.80;97.00
72814;DHT22;60945;48.516;-2.768;2022-11-15T07:26:39;13.00;96.00
72814;DHT22;60945;48.516;-2.768;2022-11-15T07:29:05;13.10;95.50
72814;DHT22;60945;48.516;-2.768;2022-11-15T07:31:31;13.10;94.70
72814;DHT22;60945;48.516;-2.768;2022-11-15T07:33:56;13.20;94.80
72814;DHT22;60945;48.516;-2.768;2022-11-15T07:36:22;13.20;95.00
72814;DHT22;60945;48.516;-2.768;2022-11-15T07:38:48;13.20;95.00
72814;DHT22;60945;48.516;-2.768;2022-11-15T07:41:16;13.20;95.30
72814;DHT22;60945;48.516;-2.768;2022-11-15T07:43:42;13.20;95.50
72814;DHT22;60945;48.516;-2.768;2022-11-15T07:46:08;13.20;95.60
72814;DHT22;60945;48.516;-2.768;2022-11-15T07:48:38;13.20;95.60
72814;DHT22;60945;48.516;-2.768;2022-11-15T07:51:05;13.30;95.60
72814;DHT22;60945;48.516;-2.768;2022-11-15T07:53:31;13.30;95.90
72814;DHT22;60945;48.516;-2.768;2022-11-15T07:55:57;13.30;96.00
72814;DHT22;60945;48.516;-2.768;2022-11-15T07:58:22;13.30;96.20
72814;DHT22;60945;48.516;-2.768;2022-11-15T08:00:48;13.30;96.30
72814;DHT22;60945;48.516;-2.768;2022-11-15T08:03:15;13.30;96.50
72814;DHT22;60945;48.516;-2.768;2022-11-15T08:05:42;13.30;96.50
72814;DHT22;60945;48.516;-2.768;2022-11-15T08:08:10;13.30;96.40
72814;DHT22;60945;48.516;-2.768;2022-11-15T08:10:36;13.30;96.60
72814;DHT22;60945;48.516;-2.768;2022-11-15T08:13:07;13.30;96.90
72814;DHT22;60945;48.516;-2.768;2022-11-15T08:15:34;13.30;97.00
72814;DHT22;60945;48.516;-2.768;2022-11-15T08:18:03;13.30;96.90
72814;DHT22;60945;48.516;-2.768;2022-11-15T08:20:30;13.30;96.60
72814;DHT22;60945;48.516;-2.768;2022-11-15T08:22:58;13.40;96.70
72814;DHT22;60945;48.516;-2.768;2022-11-15T08:25:25;13.40;97.30
72814;DHT22;60945;48.516;-2.768;2022-11-15T08:27:55;13.40;97.50
72814;DHT22;60945;48.516;-2.768;2022-11-15T08:30:21;13.40;97.50
72814;DHT22;60945;48.516;-2.768;2022-11-15T08:32:48;13.20;96.10
72814;DHT22;60945;48.516;-2.768;2022-11-15T08:35:13;13.00;94.00
72814;DHT22;60945;48.516;-2.768;2022-11-15T08:37:39;13.00;93.10
72814;DHT22;60945;48.516;-2.768;2022-11-15T08:40:06;13.00;92.30
72814;DHT22;60945;48.516;-2.768;2022-11-15T08:42:32;13.00;92.00
72814;DHT22;60945;48.516;-2.768;2022-11-15T08:44:57;12.90;92.10
72814;DHT22;60945;48.516;-2.768;2022-11-15T08:47:25;12.80;91.90
72814;DHT22;60945;48.516;-2.768;2022-11-15T08:49:52;12.60;92.10
72814;DHT22;60945;48.516;-2.768;2022-11-15T08:52:18;12.50;91.90
72814;DHT22;60945;48.516;-2.768;2022-11-15T08:54:43;12.40;91.80
72814;DHT22;60945;48.516;-2.768;2022-11-15T08:57:09;12.40;92.40
72814;DHT22;60945;48.516;-2.768;2022-11-15T08:59:36;12.50;93.20
72814;DHT22;60945;48.516;-2.768;2022-11-15T09:02:02;12.40;92.40
72814;DHT22;60945;48.516;-2.768;2022-11-15T09:04:27;12.40;92.80
72814;DHT22;60945;48.516;-2.768;2022-11-15T09:06:53;12.40;91.70
72814;DHT22;60945;48.516;-2.768;2022-11-15T09:09:19;12.30;92.00
72814;DHT22;60945;48.516;-2.768;2022-11-15T09:11:44;12.20;92.10
72814;DHT22;60945;48.516;-2.768;2022-11-15T09:14:11;12.20;92.20
72814;DHT22;60945;48.516;-2.768;2022-11-15T09:16:37;12.10;92.00
72814;DHT22;60945;48.516;-2.768;2022-11-15T09:19:03;12.10;91.10
72814;DHT22;60945;48.516;-2.768;2022-11-15T09:21:29;12.20;91.60
72814;DHT22;60945;48.516;-2.768;2022-11-15T09:23:55;12.30;90.90
72814;DHT22;60945;48.516;-2.768;2022-11-15T09:26:21;12.30;91.00
72814;DHT22;60945;48.516;-2.768;2022-11-15T09:28:47;12.30;89.80
72814;DHT22;60945;48.516;-2.768;2022-11-15T09:31:12;12.30;89.90
72814;DHT22;60945;48.516;-2.768;2022-11-15T09:33:38;12.40;89.90
72814;DHT22;60945;48.516;-2.768;2022-11-15T09:36:06;12.50;90.00
72814;DHT22;60945;48.516;-2.768;2022-11-15T09:38:33;12.40;89.60
72814;DHT22;60945;48.516;-2.768;2022-11-15T09:41:23;12.30;89.50
72814;DHT22;60945;48.516;-2.768;2022-11-15T09:46:50;12.40;89.00
72814;DHT22;60945;48.516;-2.768;2022-11-15T09:49:32;12.40;88.90
72814;DHT22;60945;48.516;-2.768;2022-11-15T09:52:24;12.40;88.70
72814;DHT22;60945;48.516;-2.768;2022-11-15T09:54:51;12.40;89.20
72814;DHT22;60945;48.516;-2.768;2022-11-15T10:00:48;12.50;88.50
72814;DHT22;60945;48.516;-2.768;2022-11-15T10:03:20;12.60;88.00
72814;DHT22;60945;48.516;-2.768;2022-11-15T10:05:52;12.60;88.00
72814;DHT22;60945;48.516;-2.768;2022-11-15T10:12:15;12.70;86.40
72814;DHT22;60945;48.516;-2.768;2022-11-15T10:14:43;12.80;86.30
72814;DHT22;60945;48.516;-2.768;2022-11-15T10:31:25;14.40;80.00
72814;DHT22;60945;48.516;-2.768;2022-11-15T10:34:12;15.00;76.30
72814;DHT22;60945;48.516;-2.768;2022-11-15T10:37:05;14.90;75.60
72814;DHT22;60945;48.516;-2.768;2022-11-15T10:43:36;14.40;77.20
72814;DHT22;60945;48.516;-2.768;2022-11-15T10:46:27;14.40;76.70
72814;DHT22;60945;48.516;-2.768;2022-11-15T10:52:25;14.20;77.30
72814;DHT22;60945;48.516;-2.768;2022-11-15T11:01:55;14.20;77.90
72814;DHT22;60945;48.516;-2.768;2022-11-15T11:15:16;14.40;75.70
72814;DHT22;60945;48.516;-2.768;2022-11-15T11:31:35;13.90;76.60
72814;DHT22;60945;48.516;-2.768;2022-11-15T11:37:37;14.20;76.30
72814;DHT22;60945;48.516;-2.768;2022-11-15T11:40:27;14.80;74.60
72814;DHT22;60945;48.516;-2.768;2022-11-15T11:49:10;15.90;70.00
72814;DHT22;60945;48.516;-2.768;2022-11-15T11:52:02;16.10;67.60
72814;DHT22;60945;48.516;-2.768;2022-11-15T11:55:10;15.70;68.00
72814;DHT22;60945;48.516;-2.768;2022-11-15T12:00:31;14.70;71.70
72814;DHT22;60945;48.516;-2.768;2022-11-15T12:05:54;14.90;71.30
72814;DHT22;60945;48.516;-2.768;2022-11-15T12:08:40;15.40;69.40
72814;DHT22;60945;48.516;-2.768;2022-11-15T12:13:56;14.70;72.20
72814;DHT22;60945;48.516;-2.768;2022-11-15T12:16:31;14.40;72.80
72814;DHT22;60945;48.516;-2.768;2022-11-15T12:19:02;14.30;72.80
72814;DHT22;60945;48.516;-2.768;2022-11-15T12:21:44;14.10;73.30
72814;DHT22;60945;48.516;-2.768;2022-11-15T12:27:04;14.20;73.00
72814;DHT22;60945;48.516;-2.768;2022-11-15T12:29:38;14.70;72.10
72814;DHT22;60945;48.516;-2.768;2022-11-15T12:32:06;15.00;70.60
72814;DHT22;60945;48.516;-2.768;2022-11-15T12:34:43;15.00;69.70
72814;DHT22;60945;48.516;-2.768;2022-11-15T12:40:28;15.50;68.30
72814;DHT22;60945;48.516;-2.768;2022-11-15T12:45:40;14.70;70.50
72814;DHT22;60945;48.516;-2.768;2022-11-15T13:18:33;14.80;70.80
72814;DHT22;60945;48.516;-2.768;2022-11-15T13:38:43;15.70;62.80
72814;DHT22;60945;48.516;-2.768;2022-11-15T14:21:22;23.90;36.00
72814;DHT22;60945;48.516;-2.768;2022-11-15T14:23:47;22.10;39.90
72814;DHT22;60945;48.516;-2.768;2022-11-15T14:29:29;23.00;37.50
72814;DHT22;60945;48.516;-2.768;2022-11-15T14:34:23;23.60;38.60
72814;DHT22;60945;48.516;-2.768;2022-11-15T14:36:49;23.20;38.90
72814;DHT22;60945;48.516;-2.768;2022-11-15T14:39:14;23.60;38.00
72814;DHT22;60945;48.516;-2.768;2022-11-15T14:41:40;23.70;37.90
72814;DHT22;60945;48.516;-2.768;2022-11-15T14:44:09;21.80;39.70
72814;DHT22;60945;48.516;-2.768;2022-11-15T14:46:35;21.10;41.50
72814;DHT22;60945;48.516;-2.768;2022-11-15T14:49:01;20.60;42.90
72814;DHT22;60945;48.516;-2.768;2022-11-15T14:51:27;19.50;46.40
72814;DHT22;60945;48.516;-2.768;2022-11-15T14:53:52;17.40;49.70
72814;DHT22;60945;48.516;-2.768;2022-11-15T14:56:19;16.60;52.10
72814;DHT22;60945;48.516;-2.768;2022-11-15T14:58:45;16.00;54.40
72814;DHT22;60945;48.516;-2.768;2022-11-15T15:01:40;15.80;55.20
72814;DHT22;60945;48.516;-2.768;2022-11-15T15:04:05;15.30;56.90
72814;DHT22;60945;48.516;-2.768;2022-11-15T15:06:31;15.10;57.20
72814;DHT22;60945;48.516;-2.768;2022-11-15T15:08:57;14.80;56.60
72814;DHT22;60945;48.516;-2.768;2022-11-15T15:11:24;14.70;56.90
72814;DHT22;60945;48.516;-2.768;2022-11-15T15:13:51;14.50;58.80
72814;DHT22;60945;48.516;-2.768;2022-11-15T15:16:18;14.40;58.70
72814;DHT22;60945;48.516;-2.768;2022-11-15T15:18:44;14.20;58.40
72814;DHT22;60945;48.516;-2.768;2022-11-15T15:21:23;14.10;58.10
72814;DHT22;60945;48.516;-2.768;2022-11-15T15:23:49;13.90;58.20
72814;DHT22;60945;48.516;-2.768;2022-11-15T15:26:15;13.50;60.60
72814;DHT22;60945;48.516;-2.768;2022-11-15T15:28:41;13.50;59.80
72814;DHT22;60945;48.516;-2.768;2022-11-15T15:31:08;13.40;61.00
72814;DHT22;60945;48.516;-2.768;2022-11-15T15:33:36;13.30;62.70
72814;DHT22;60945;48.516;-2.768;2022-11-15T15:36:03;13.30;61.90
72814;DHT22;60945;48.516;-2.768;2022-11-15T15:38:29;13.20;62.10
72814;DHT22;60945;48.516;-2.768;2022-11-15T15:40:54;13.10;61.80
72814;DHT22;60945;48.516;-2.768;2022-11-15T15:43:24;12.90;62.10
72814;DHT22;60945;48.516;-2.768;2022-11-15T15:45:50;12.90;61.90
72814;DHT22;60945;48.516;-2.768;2022-11-15T15:48:18;13.10;62.30
72814;DHT22;60945;48.516;-2.768;2022-11-15T15:50:44;13.00;61.20
72814;DHT22;60945;48.516;-2.768;2022-11-15T15:53:11;12.80;63.60
72814;DHT22;60945;48.516;-2.768;2022-11-15T15:55:37;12.80;63.60
72814;DHT22;60945;48.516;-2.768;2022-11-15T15:58:04;12.80;63.20
72814;DHT22;60945;48.516;-2.768;2022-11-15T16:00:30;12.80;63.10
72814;DHT22;60945;48.516;-2.768;2022-11-15T16:02:58;12.80;63.00
72814;DHT22;60945;48.516;-2.768;2022-11-15T16:05:24;12.90;65.40
72814;DHT22;60945;48.516;-2.768;2022-11-15T16:07:50;12.80;64.90
72814;DHT22;60945;48.516;-2.768;2022-11-15T16:10:28;12.70;65.10
72814;DHT22;60945;48.516;-2.768;2022-11-15T16:12:55;12.50;65.30
72814;DHT22;60945;48.516;-2.768;2022-11-15T16:15:22;12.40;65.60
72814;DHT22;60945;48.516;-2.768;2022-11-15T16:17:51;12.40;65.20
72814;DHT22;60945;48.516;-2.768;2022-11-15T16:20:38;12.20;65.80
72814;DHT22;60945;48.516;-2.768;2022-11-15T16:23:15;12.10;66.80
72814;DHT22;60945;48.516;-2.768;2022-11-15T16:25:45;12.10;67.70
72814;DHT22;60945;48.516;-2.768;2022-11-15T16:28:23;12.00;66.50
72814;DHT22;60945;48.516;-2.768;2022-11-15T16:30:59;11.90;67.80
72814;DHT22;60945;48.516;-2.768;2022-11-15T16:33:25;11.80;67.10
72814;DHT22;60945;48.516;-2.768;2022-11-15T16:35:57;11.70;67.80
72814;DHT22;60945;48.516;-2.768;2022-11-15T16:38:23;11.60;68.80
72814;DHT22;60945;48.516;-2.768;2022-11-15T16:40:49;11.50;69.30
72814;DHT22;60945;48.516;-2.768;2022-11-15T16:43:14;11.50;69.30
72814;DHT22;60945;48.516;-2.768;2022-11-15T16:45:40;11.30;70.00
72814;DHT22;60945;48.516;-2.768;2022-11-15T16:48:06;11.30;70.30
72814;DHT22;60945;48.516;-2.768;2022-11-15T16:50:35;11.20;70.80
72814;DHT22;60945;48.516;-2.768;2022-11-15T16:53:04;11.20;69.60
72814;DHT22;60945;48.516;-2.768;2022-11-15T16:55:29;11.10;70.00
72814;DHT22;60945;48.516;-2.768;2022-11-15T16:57:56;11.00;70.60
72814;DHT22;60945;48.516;-2.768;2022-11-15T17:00:26;11.00;71.10
72814;DHT22;60945;48.516;-2.768;2022-11-15T17:02:52;11.00;70.20
72814;DHT22;60945;48.516;-2.768;2022-11-15T17:05:20;11.00;70.60
72814;DHT22;60945;48.516;-2.768;2022-11-15T17:07:50;10.90;70.60
72814;DHT22;60945;48.516;-2.768;2022-11-15T17:10:22;10.90;71.40
72814;DHT22;60945;48.516;-2.768;2022-11-15T17:12:51;10.90;71.20
72814;DHT22;60945;48.516;-2.768;2022-11-15T17:15:18;10.90;71.30
72814;DHT22;60945;48.516;-2.768;2022-11-15T17:17:50;10.80;71.80
72814;DHT22;60945;48.516;-2.768;2022-11-15T17:20:22;10.80;71.90
72814;DHT22;60945;48.516;-2.768;2022-11-15T17:22:49;10.80;71.70
72814;DHT22;60945;48.516;-2.768;2022-11-15T17:25:16;10.80;71.60
72814;DHT22;60945;48.516;-2.768;2022-11-15T17:27:43;10.80;71.90
72814;DHT22;60945;48.516;-2.768;2022-11-15T17:30:11;10.70;71.80
72814;DHT22;60945;48.516;-2.768;2022-11-15T17:32:37;10.70;72.20
72814;DHT22;60945;48.516;-2.768;2022-11-15T17:35:04;10.70;72.40
72814;DHT22;60945;48.516;-2.768;2022-11-15T17:37:32;10.70;72.40
72814;DHT22;60945;48.516;-2.768;2022-11-15T17:39:58;10.70;72.20
72814;DHT22;60945;48.516;-2.768;2022-11-15T17:42:26;10.70;72.50
72814;DHT22;60945;48.516;-2.768;2022-11-15T17:44:52;10.60;72.90
72814;DHT22;60945;48.516;-2.768;2022-11-15T17:47:17;10.60;73.10
72814;DHT22;60945;48.516;-2.768;2022-11-15T17:49:43;10.50;73.20
72814;DHT22;60945;48.516;-2.768;2022-11-15T17:52:09;10.50;73.60
72814;DHT22;60945;48.516;-2.768;2022-11-15T17:54:34;10.50;73.80
72814;DHT22;60945;48.516;-2.768;2022-11-15T17:57:00;10.40;74.00
72814;DHT22;60945;48.516;-2.768;2022-11-15T17:59:26;10.40;74.30
72814;DHT22;60945;48.516;-2.768;2022-11-15T18:01:51;10.40;74.40
72814;DHT22;60945;48.516;-2.768;2022-11-15T18:04:18;10.30;74.70
72814;DHT22;60945;48.516;-2.768;2022-11-15T18:06:44;10.30;74.80
72814;DHT22;60945;48.516;-2.768;2022-11-15T18:09:12;10.20;75.00
72814;DHT22;60945;48.516;-2.768;2022-11-15T18:11:42;10.20;75.20
72814;DHT22;60945;48.516;-2.768;2022-11-15T18:14:14;10.20;75.00
72814;DHT22;60945;48.516;-2.768;2022-11-15T18:16:41;10.20;75.00
72814;DHT22;60945;48.516;-2.768;2022-11-15T18:19:07;10.10;75.10
72814;DHT22;60945;48.516;-2.768;2022-11-15T18:21:43;10.20;74.90
72814;DHT22;60945;48.516;-2.768;2022-11-15T18:24:32;10.20;74.80
72814;DHT22;60945;48.516;-2.768;2022-11-15T18:27:00;10.20;75.00
72814;DHT22;60945;48.516;-2.768;2022-11-15T18:29:26;10.20;75.00
72814;DHT22;60945;48.516;-2.768;2022-11-15T18:31:54;10.10;75.00
72814;DHT22;60945;48.516;-2.768;2022-11-15T18:34:27;10.10;75.10
72814;DHT22;60945;48.516;-2.768;2022-11-15T18:36:58;10.10;75.30
72814;DHT22;60945;48.516;-2.768;2022-11-15T18:39:24;10.10;75.40
72814;DHT22;60945;48.516;-2.768;2022-11-15T18:41:52;10.00;75.70
72814;DHT22;60945;48.516;-2.768;2022-11-15T18:44:18;10.00;75.80
72814;DHT22;60945;48.516;-2.768;2022-11-15T18:46:44;10.00;75.90
72814;DHT22;60945;48.516;-2.768;2022-11-15T18:49:13;10.00;75.90
72814;DHT22;60945;48.516;-2.768;2022-11-15T18:51:39;10.00;76.20
72814;DHT22;60945;48.516;-2.768;2022-11-15T18:54:10;10.00;76.20
72814;DHT22;60945;48.516;-2.768;2022-11-15T18:56:36;10.10;75.70
72814;DHT22;60945;48.516;-2.768;2022-11-15T18:59:02;10.20;75.50
72814;DHT22;60945;48.516;-2.768;2022-11-15T19:01:31;10.20;75.60
72814;DHT22;60945;48.516;-2.768;2022-11-15T19:04:05;10.20;75.40